KLOZ/LOZ METAR and TAF weather

Enter ICAO airport designator
Station Type Date Time Source
KLOZ METAR 2021/03/07 08:53 UTC NOAA

KLOZ 070853Z AUTO 00000KT 10SM CLR M04/M07 A3030 RMK AO2 SLP268 T10391067 51005


Station Type Date Time Source
KLOZ Decoded METAR 2021/03/07 08:53 UTC NOAA

LONDON-CORBIN AIRPORT, KY, United States (KLOZ) 37-05N 084-04W 362M
Mar 07, 2021 - 03:53 AM EST / 2021.03.07 0853 UTC
Wind: Calm:0
Visibility: 10 mile(s):0
Sky conditions: clear
Temperature: 25.0 F (-3.9 C)
Dew Point: 19.9 F (-6.7 C)
Relative Humidity: 80%
Pressure (altimeter): 30.3 in. Hg (1026 hPa)
Pressure tendency: 0.01 inches (0.5 hPa) higher than three hours ago
ob: KLOZ 070853Z AUTO 00000KT 10SM CLR M04/M07 A3030 RMK AO2 SLP268 T10391067 51005
cycle: 9

Station Type Date Time Source
KLOZ TAF 2021/03/07 06:40 UTC NOAA

TAF KLOZ 070538Z 0706/0806 VRB03KT P6SM SKC
FM071500 30006KT P6SM SKC
FM080000 VRB03KT P6SM SKC

Example: see airport list